createdAt,value
2022-09-22T00:02:04.541Z,11.02
2022-09-22T00:05:10.834Z,10.94
2022-09-22T00:08:10.518Z,10.90
2022-09-22T00:11:23.511Z,10.82
2022-09-22T00:14:39.211Z,10.71
2022-09-22T00:17:44.315Z,10.73
2022-09-22T00:20:53.120Z,10.73
2022-09-22T00:23:59.059Z,10.70
2022-09-22T00:27:05.340Z,10.65
2022-09-22T00:30:10.366Z,10.66
2022-09-22T00:33:16.779Z,10.70
2022-09-22T00:36:23.142Z,10.65
2022-09-22T00:39:22.887Z,10.59
2022-09-22T00:42:16.517Z,10.47
2022-09-22T00:45:23.761Z,10.54
2022-09-22T00:48:28.814Z,10.56
2022-09-22T00:51:37.514Z,10.46
2022-09-22T00:54:43.480Z,10.43
2022-09-22T00:57:50.731Z,10.35
2022-09-22T01:00:56.204Z,10.28
2022-09-22T01:04:01.374Z,10.17
2022-09-22T01:07:06.784Z,10.14
2022-09-22T01:10:12.397Z,10.10
2022-09-22T01:13:49.120Z,10.00
2022-09-22T01:17:18.148Z,10.06
2022-09-22T01:20:43.213Z,9.98
2022-09-22T01:24:18.141Z,9.86
2022-09-22T01:27:47.995Z,9.71
2022-09-22T01:31:07.070Z,9.75
2022-09-22T01:34:25.687Z,9.80
2022-09-22T01:37:31.649Z,9.71
2022-09-22T01:41:03.055Z,9.77
2022-09-22T01:44:15.353Z,9.79
2022-09-22T01:47:31.509Z,9.68
2022-09-22T01:50:50.644Z,9.53
2022-09-22T01:54:00.749Z,9.37
2022-09-22T01:57:09.807Z,9.08
2022-09-22T02:00:18.563Z,9.02
2022-09-22T02:03:41.472Z,9.17
2022-09-22T02:06:54.186Z,9.19
2022-09-22T02:10:02.242Z,9.10
2022-09-22T02:13:07.166Z,9.12
2022-09-22T02:16:12.389Z,9.14
2022-09-22T02:19:39.748Z,9.18
2022-09-22T02:22:45.265Z,9.19
2022-09-22T02:25:52.073Z,9.19
2022-09-22T02:28:51.943Z,9.25
2022-09-22T02:31:53.058Z,9.29
2022-09-22T02:35:00.067Z,9.28
2022-09-22T02:38:09.680Z,9.28
2022-09-22T02:41:33.158Z,9.23
2022-09-22T02:44:58.104Z,9.23
2022-09-22T02:48:15.943Z,9.25
2022-09-22T02:51:20.737Z,9.27
2022-09-22T02:54:25.779Z,9.21
2022-09-22T02:57:31.723Z,9.22
2022-09-22T03:00:39.531Z,9.31
2022-09-22T03:03:45.435Z,9.29
2022-09-22T03:06:50.706Z,9.32
2022-09-22T03:09:56.276Z,9.41
2022-09-22T03:13:19.950Z,9.46
2022-09-22T03:16:13.296Z,9.50
2022-09-22T03:19:19.003Z,9.49
2022-09-22T03:22:25.282Z,9.50
2022-09-22T03:25:31.234Z,9.32
2022-09-22T03:28:37.684Z,9.30
2022-09-22T03:31:43.337Z,9.30
2022-09-22T03:34:49.801Z,9.35
2022-09-22T03:37:54.667Z,9.39
2022-09-22T03:41:08.660Z,9.51
2022-09-22T03:44:14.272Z,9.51
2022-09-22T03:47:20.470Z,9.54
2022-09-22T03:50:27.130Z,9.54
2022-09-22T03:53:32.483Z,9.54
2022-09-22T03:56:37.230Z,9.50
2022-09-22T03:59:43.476Z,9.38
2022-09-22T04:02:48.927Z,9.40
2022-09-22T04:05:55.202Z,9.48
2022-09-22T04:09:01.934Z,9.59
2022-09-22T04:12:07.481Z,9.72
2022-09-22T04:15:12.892Z,9.83
2022-09-22T04:18:19.718Z,9.96
2022-09-22T04:21:25.583Z,10.12
2022-09-22T04:24:31.906Z,10.32
2022-09-22T04:27:36.763Z,10.48
2022-09-22T04:30:47.475Z,10.60
2022-09-22T04:33:55.962Z,10.75
2022-09-22T04:37:02.392Z,10.92
2022-09-22T04:40:08.544Z,11.10
2022-09-22T04:43:15.117Z,11.26
2022-09-22T04:46:14.147Z,11.48
2022-09-22T04:49:19.356Z,11.61
2022-09-22T04:52:24.926Z,11.84
2022-09-22T04:55:31.456Z,12.03
2022-09-22T04:58:38.113Z,12.16
2022-09-22T05:01:43.539Z,12.35
2022-09-22T05:04:48.964Z,12.48
2022-09-22T05:08:01.234Z,12.75
2022-09-22T05:11:07.980Z,13.04
2022-09-22T05:14:14.824Z,13.25
2022-09-22T05:17:20.536Z,13.45
2022-09-22T05:20:27.420Z,13.72
2022-09-22T05:23:36.995Z,13.85
2022-09-22T05:26:43.753Z,14.02
2022-09-22T05:29:48.485Z,14.23
2022-09-22T05:33:00.056Z,14.41
2022-09-22T05:36:07.565Z,14.57
2022-09-22T05:39:14.285Z,14.67
2022-09-22T05:42:20.888Z,14.94
2022-09-22T05:45:26.646Z,15.08
2022-09-22T05:48:33.212Z,15.19
2022-09-22T05:51:39.455Z,15.29
2022-09-22T05:54:40.819Z,15.42
2022-09-22T05:57:41.540Z,15.57
2022-09-22T06:00:40.740Z,15.73
2022-09-22T06:03:27.013Z,15.92
2022-09-22T06:06:22.172Z,16.10
2022-09-22T06:09:15.747Z,15.92
2022-09-22T06:12:22.150Z,16.00
2022-09-22T06:15:27.730Z,16.15
2022-09-22T06:18:33.337Z,16.26
2022-09-22T06:21:42.254Z,16.41
2022-09-22T06:24:48.418Z,16.53
2022-09-22T06:27:54.024Z,16.69
2022-09-22T06:31:00.319Z,16.79
2022-09-22T06:36:39.596Z,17.03
2022-09-22T06:39:45.758Z,17.11
2022-09-22T06:42:52.188Z,17.20
2022-09-22T06:46:02.458Z,17.26
2022-09-22T06:49:12.556Z,17.44
2022-09-22T06:52:23.461Z,17.55
2022-09-22T06:55:29.574Z,17.63
2022-09-22T06:58:58.607Z,17.70
2022-09-22T07:01:43.096Z,17.83
2022-09-22T07:04:50.700Z,17.94
2022-09-22T07:07:59.416Z,18.02
2022-09-22T07:11:11.282Z,18.04
2022-09-22T07:14:19.779Z,18.20
2022-09-22T07:17:27.487Z,18.25
2022-09-22T07:20:35.153Z,18.31
2022-09-22T07:23:43.396Z,18.32
2022-09-22T07:26:53.564Z,18.30
2022-09-22T07:30:01.592Z,18.46
2022-09-22T07:33:08.182Z,18.50
2022-09-22T07:36:21.226Z,18.59
2022-09-22T07:39:26.694Z,18.75
2022-09-22T07:42:32.716Z,18.67
2022-09-22T07:45:39.088Z,18.63
2022-09-22T07:48:55.429Z,18.62
2022-09-22T07:52:18.536Z,18.72
2022-09-22T07:55:25.855Z,18.78
2022-09-22T07:58:33.128Z,18.87
2022-09-22T08:01:41.852Z,18.88
2022-09-22T08:04:49.507Z,18.89
2022-09-22T08:07:55.675Z,18.98
2022-09-22T08:11:02.557Z,18.99
2022-09-22T08:14:13.348Z,19.09
2022-09-22T08:17:19.990Z,19.19
2022-09-22T08:20:27.780Z,19.23
2022-09-22T08:23:33.761Z,19.24
2022-09-22T08:26:39.302Z,19.31
2022-09-22T08:29:45.176Z,19.34
2022-09-22T08:32:52.521Z,19.40
2022-09-22T08:36:11.546Z,19.47
2022-09-22T08:39:16.484Z,19.54
2022-09-22T08:42:35.272Z,19.74
2022-09-22T08:45:46.045Z,19.99
2022-09-22T08:49:08.878Z,20.01
2022-09-22T08:52:18.740Z,20.00
2022-09-22T08:55:41.152Z,20.15
2022-09-22T08:59:05.650Z,20.18
2022-09-22T09:02:37.171Z,20.24
2022-09-22T09:06:17.830Z,20.05
2022-09-22T09:09:23.671Z,19.98
2022-09-22T09:12:49.785Z,20.05
2022-09-22T09:15:59.903Z,20.22
2022-09-22T09:19:11.123Z,20.38
2022-09-22T09:22:17.211Z,20.35
2022-09-22T09:25:36.686Z,20.29
2022-09-22T09:29:04.002Z,20.21
2022-09-22T09:32:09.550Z,20.11
2022-09-22T09:35:16.638Z,20.17
2022-09-22T09:38:24.665Z,20.17
2022-09-22T09:41:46.592Z,20.29
2022-09-22T09:44:56.224Z,20.54
2022-09-22T09:48:26.543Z,20.68
2022-09-22T09:51:31.637Z,20.75
2022-09-22T09:54:37.574Z,20.72
2022-09-22T09:57:43.204Z,20.71
2022-09-22T10:00:49.975Z,20.76
2022-09-22T10:04:02.159Z,21.01
2022-09-22T10:07:08.439Z,21.33
2022-09-22T10:10:37.727Z,21.55
2022-09-22T10:13:47.483Z,21.67
2022-09-22T10:16:54.748Z,21.77
2022-09-22T10:20:01.710Z,21.81
2022-09-22T10:23:09.829Z,21.87
2022-09-22T10:26:44.700Z,21.83
2022-09-22T10:29:49.616Z,21.77
2022-09-22T10:32:54.510Z,21.64
2022-09-22T10:36:19.235Z,21.46
2022-09-22T10:39:28.268Z,21.43
2022-09-22T10:42:54.752Z,21.31
2022-09-22T10:46:19.265Z,21.38
2022-09-22T10:50:07.657Z,21.49
2022-09-22T10:53:22.027Z,21.57
2022-09-22T10:56:54.689Z,21.52
2022-09-22T11:00:33.055Z,21.37
2022-09-22T11:04:15.362Z,21.21
2022-09-22T11:08:18.845Z,21.12
2022-09-22T11:11:58.383Z,20.96
2022-09-22T11:15:22.434Z,20.96
2022-09-22T11:18:59.995Z,21.08
2022-09-22T11:22:32.917Z,21.20
2022-09-22T11:26:24.126Z,21.31
2022-09-22T11:30:10.984Z,21.31
2022-09-22T11:33:46.659Z,21.27
2022-09-22T11:37:33.181Z,21.34
2022-09-22T11:41:31.610Z,21.34
2022-09-22T11:44:50.936Z,21.31
2022-09-22T11:48:07.469Z,21.27
2022-09-22T11:51:56.552Z,21.12
2022-09-22T11:55:35.124Z,21.08
2022-09-22T11:58:42.631Z,21.01
2022-09-22T12:01:51.920Z,20.87
2022-09-22T12:05:11.343Z,20.88
2022-09-22T12:08:29.967Z,20.96
2022-09-22T12:11:37.112Z,21.01
2022-09-22T12:14:44.878Z,20.98
2022-09-22T12:18:03.604Z,21.10
2022-09-22T12:21:17.005Z,21.04
2022-09-22T12:24:26.147Z,20.91
2022-09-22T12:27:42.168Z,20.98
2022-09-22T12:30:48.779Z,21.06
2022-09-22T12:34:01.168Z,21.04
2022-09-22T12:37:11.656Z,20.89
2022-09-22T12:40:35.647Z,20.95
2022-09-22T12:43:41.954Z,20.81
2022-09-22T12:46:48.498Z,20.71
2022-09-22T12:50:13.168Z,20.60
2022-09-22T12:53:28.771Z,20.57
2022-09-22T12:57:22.978Z,20.52
2022-09-22T13:00:36.166Z,20.47
2022-09-22T13:03:45.756Z,20.41
2022-09-22T13:06:59.561Z,20.53
2022-09-22T13:10:05.263Z,20.56
2022-09-22T13:13:22.276Z,20.45
2022-09-22T13:16:36.157Z,20.47
2022-09-22T13:19:28.980Z,20.41
2022-09-22T13:22:34.936Z,20.33
2022-09-22T13:25:42.604Z,20.38
2022-09-22T13:28:47.606Z,20.39
2022-09-22T13:32:00.108Z,20.39
2022-09-22T13:35:06.573Z,20.49
2022-09-22T13:38:14.209Z,20.44
2022-09-22T13:41:25.465Z,20.35
2022-09-22T13:44:35.279Z,20.33
2022-09-22T13:47:41.821Z,20.21
2022-09-22T13:50:47.329Z,20.13
2022-09-22T13:53:52.981Z,20.13
2022-09-22T13:57:00.450Z,20.03
2022-09-22T14:00:07.102Z,20.09
2022-09-22T14:03:13.549Z,19.95
2022-09-22T14:06:21.882Z,19.93
2022-09-22T14:09:27.120Z,20.02
2022-09-22T14:12:32.830Z,19.96
2022-09-22T14:15:57.518Z,19.92
2022-09-22T14:19:07.142Z,19.68
2022-09-22T14:22:12.640Z,19.88
2022-09-22T14:25:20.417Z,19.78
2022-09-22T14:28:29.695Z,19.65
2022-09-22T14:31:41.380Z,19.65
2022-09-22T14:34:47.895Z,19.58
2022-09-22T14:37:52.853Z,19.56
2022-09-22T14:40:40.403Z,19.63
2022-09-22T14:43:49.027Z,19.54
2022-09-22T14:46:56.433Z,19.56
2022-09-22T14:50:03.123Z,19.65
2022-09-22T14:53:30.057Z,19.54
2022-09-22T14:56:43.890Z,19.30
2022-09-22T15:00:08.575Z,19.16
2022-09-22T15:03:13.488Z,19.10
2022-09-22T15:06:24.882Z,19.06
2022-09-22T15:09:42.480Z,18.97
2022-09-22T15:12:58.042Z,18.97
2022-09-22T15:16:03.885Z,18.99
2022-09-22T15:19:09.034Z,18.89
2022-09-22T15:22:15.282Z,18.81
2022-09-22T15:25:22.797Z,18.74
2022-09-22T15:28:33.335Z,18.63
2022-09-22T15:31:39.179Z,18.74
2022-09-22T15:34:46.372Z,18.83
2022-09-22T15:37:52.750Z,18.75
2022-09-22T15:41:00.095Z,18.57
2022-09-22T15:44:06.548Z,18.51
2022-09-22T15:47:12.830Z,18.44
2022-09-22T15:50:23.539Z,18.33
2022-09-22T15:53:30.385Z,18.24
2022-09-22T15:56:36.212Z,18.27
2022-09-22T15:59:45.008Z,18.11
2022-09-22T16:02:50.441Z,18.13
2022-09-22T16:05:58.016Z,18.09
2022-09-22T16:09:09.365Z,18.01
2022-09-22T16:12:19.538Z,17.97
2022-09-22T16:15:27.281Z,17.94
2022-09-22T16:18:33.479Z,17.97
2022-09-22T16:21:44.814Z,17.89
2022-09-22T16:24:50.936Z,17.93
2022-09-22T16:27:57.339Z,17.85
2022-09-22T16:31:03.299Z,17.80
2022-09-22T16:34:12.876Z,17.79
2022-09-22T16:37:18.264Z,17.77
2022-09-22T16:40:27.225Z,17.77
2022-09-22T16:43:32.821Z,17.80
2022-09-22T16:46:41.677Z,17.70
2022-09-22T16:49:47.880Z,17.67
2022-09-22T16:52:54.454Z,17.60
2022-09-22T16:56:04.169Z,17.65
2022-09-22T16:59:10.236Z,17.58
2022-09-22T17:02:15.701Z,17.53
2022-09-22T17:05:22.461Z,17.58
2022-09-22T17:08:30.822Z,17.49
2022-09-22T17:11:37.660Z,17.46
2022-09-22T17:14:44.208Z,17.43
2022-09-22T17:17:50.949Z,17.35
2022-09-22T17:20:51.532Z,17.31
2022-09-22T17:23:58.300Z,17.33
2022-09-22T17:27:08.984Z,17.49
2022-09-22T17:30:14.572Z,17.35
2022-09-22T17:33:19.343Z,17.29
2022-09-22T17:36:26.194Z,17.17
2022-09-22T17:39:25.116Z,17.17
2022-09-22T17:42:30.982Z,17.14
2022-09-22T17:45:36.166Z,17.13
2022-09-22T17:48:59.479Z,17.15
2022-09-22T17:52:24.058Z,17.13
2022-09-22T17:55:34.255Z,17.19
2022-09-22T17:58:40.103Z,17.23
2022-09-22T18:01:45.758Z,17.20
2022-09-22T18:04:51.724Z,17.26
2022-09-22T18:07:58.411Z,17.32
2022-09-22T18:11:04.767Z,17.22
2022-09-22T18:14:12.772Z,17.20
2022-09-22T18:17:19.531Z,17.35
2022-09-22T18:20:33.446Z,17.09
2022-09-22T18:23:39.678Z,17.06
2022-09-22T18:26:46.810Z,16.98
2022-09-22T18:29:56.287Z,17.05
2022-09-22T18:33:02.742Z,16.81
2022-09-22T18:36:08.565Z,16.95
2022-09-22T18:39:15.677Z,17.08
2022-09-22T18:42:24.484Z,17.14
2022-09-22T18:45:34.646Z,17.18
2022-09-22T18:48:40.019Z,17.12
2022-09-22T18:51:49.167Z,17.22
2022-09-22T18:54:55.347Z,17.02
2022-09-22T18:58:00.910Z,17.00
2022-09-22T19:01:06.935Z,17.04
2022-09-22T19:04:12.861Z,17.12
2022-09-22T19:07:40.592Z,17.11
2022-09-22T19:10:42.593Z,17.04
2022-09-22T19:13:41.571Z,17.11
2022-09-22T19:16:48.806Z,17.15
2022-09-22T19:19:56.157Z,17.19
2022-09-22T19:23:01.111Z,17.17
2022-09-22T19:26:06.987Z,17.08
2022-09-22T19:29:12.278Z,17.20
2022-09-22T19:32:17.477Z,17.16
2022-09-22T19:35:23.884Z,17.14
2022-09-22T19:38:29.152Z,17.16
2022-09-22T19:41:34.339Z,17.16
2022-09-22T19:44:33.770Z,17.14
2022-09-22T19:47:39.698Z,17.17
2022-09-22T19:50:46.660Z,17.13
2022-09-22T19:53:53.019Z,17.11
2022-09-22T19:57:00.832Z,17.08
2022-09-22T20:00:06.575Z,17.03
2022-09-22T20:03:12.655Z,16.92
2022-09-22T20:06:17.970Z,17.02
2022-09-22T20:09:18.938Z,16.87
2022-09-22T20:12:18.359Z,16.91
2022-09-22T20:15:25.591Z,16.82
2022-09-22T20:18:31.797Z,16.84
2022-09-22T20:21:37.142Z,16.77
2022-09-22T20:24:43.864Z,16.82
2022-09-22T20:27:51.028Z,16.78
2022-09-22T20:30:56.856Z,16.72
2022-09-22T20:34:03.121Z,16.72
2022-09-22T20:37:08.904Z,16.82
2022-09-22T20:40:14.437Z,16.74
2022-09-22T20:43:23.609Z,16.79
2022-09-22T20:46:31.642Z,16.81
2022-09-22T20:49:39.607Z,16.73
2022-09-22T20:52:45.087Z,16.60
2022-09-22T20:55:50.388Z,16.60
2022-09-22T20:58:58.579Z,16.74
2022-09-22T21:02:06.657Z,16.63
2022-09-22T21:05:05.712Z,16.73
2022-09-22T21:08:06.596Z,16.69
2022-09-22T21:11:11.599Z,16.67
2022-09-22T21:14:17.808Z,16.61
2022-09-22T21:17:24.401Z,16.66
2022-09-22T21:20:30.049Z,16.58
2022-09-22T21:23:36.925Z,16.54
2022-09-22T21:26:42.184Z,16.55
2022-09-22T21:29:47.877Z,16.57
2022-09-22T21:32:53.678Z,16.51
2022-09-22T21:36:01.748Z,16.49
2022-09-22T21:39:12.240Z,16.48
2022-09-22T21:42:17.531Z,16.52
2022-09-22T21:45:25.063Z,16.38
2022-09-22T21:48:31.297Z,16.36
2022-09-22T21:51:37.151Z,16.41
2022-09-22T21:54:42.990Z,16.32
2022-09-22T21:57:47.903Z,16.28
2022-09-22T22:00:54.031Z,16.16
2022-09-22T22:03:59.835Z,16.09
2022-09-22T22:07:05.133Z,16.20
2022-09-22T22:10:10.932Z,16.19
2022-09-22T22:13:18.441Z,16.05
2022-09-22T22:16:26.648Z,16.05
2022-09-22T22:19:34.827Z,15.95
2022-09-22T22:22:40.279Z,15.88
2022-09-22T22:25:46.075Z,15.84
2022-09-22T22:28:52.144Z,15.84
2022-09-22T22:31:58.597Z,15.74
2022-09-22T22:35:04.516Z,15.88
2022-09-22T22:38:11.121Z,15.85
2022-09-22T22:41:19.373Z,15.96
2022-09-22T22:44:26.031Z,15.78
2022-09-22T22:47:32.831Z,15.69
2022-09-22T22:50:38.697Z,15.76
2022-09-22T22:53:45.030Z,15.69
2022-09-22T22:56:51.777Z,15.70
2022-09-22T22:59:57.410Z,15.60
2022-09-22T23:03:01.947Z,15.58
2022-09-22T23:06:15.193Z,15.55
2022-09-22T23:09:24.605Z,15.44
2022-09-22T23:12:31.046Z,15.42
2022-09-22T23:15:29.563Z,15.34
2022-09-22T23:18:35.569Z,15.27
2022-09-22T23:21:41.840Z,15.21
2022-09-22T23:24:48.565Z,15.11
2022-09-22T23:27:55.628Z,15.07
2022-09-22T23:31:02.587Z,14.99
2022-09-22T23:34:09.300Z,15.03
2022-09-22T23:37:15.489Z,15.07
2022-09-22T23:40:23.971Z,15.04
2022-09-22T23:43:30.223Z,14.96
2022-09-22T23:46:37.114Z,14.90
2022-09-22T23:49:42.671Z,14.87
2022-09-22T23:52:50.847Z,14.68
2022-09-22T23:55:56.419Z,14.62
2022-09-22T23:58:54.697Z,14.56
